createdAt,value
2018-07-02T00:00:31.690Z,20.52
2018-07-02T00:03:01.611Z,20.19
2018-07-02T00:05:42.355Z,20.58
2018-07-02T00:08:12.685Z,20.83
2018-07-02T00:10:42.738Z,21.00
2018-07-02T00:13:12.708Z,21.06
2018-07-02T00:15:42.700Z,20.89
2018-07-02T00:18:12.619Z,20.54
2018-07-02T00:20:42.581Z,20.26
2018-07-02T00:23:12.623Z,20.35
2018-07-02T00:25:42.637Z,20.39
2018-07-02T00:28:12.614Z,20.51
2018-07-02T00:30:42.696Z,20.67
2018-07-02T00:33:12.588Z,21.00
2018-07-02T00:35:42.693Z,21.04
2018-07-02T00:38:12.620Z,21.01
2018-07-02T00:40:42.560Z,20.80
2018-07-02T00:43:12.531Z,20.67
2018-07-02T00:45:42.570Z,20.58
2018-07-02T00:48:12.591Z,20.33
2018-07-02T00:50:42.711Z,19.93
2018-07-02T00:53:12.711Z,19.50
2018-07-02T00:55:42.786Z,19.78
2018-07-02T00:58:12.794Z,20.28
2018-07-02T01:00:43.000Z,20.60
2018-07-02T01:03:12.983Z,20.55
2018-07-02T01:05:42.992Z,20.40
2018-07-02T01:08:12.948Z,20.35
2018-07-02T01:10:42.946Z,20.22
2018-07-02T01:13:13.170Z,20.18
2018-07-02T01:15:43.205Z,20.17
2018-07-02T01:18:13.417Z,20.21
2018-07-02T01:20:45.727Z,20.26
2018-07-02T01:23:16.262Z,20.25
2018-07-02T01:25:46.526Z,20.31
2018-07-02T01:28:16.422Z,20.18
2018-07-02T01:30:49.088Z,20.17
2018-07-02T01:33:19.076Z,20.27
2018-07-02T01:35:49.496Z,20.34
2018-07-02T01:38:19.807Z,20.44
2018-07-02T01:40:49.739Z,20.52
2018-07-02T01:43:19.658Z,20.55
2018-07-02T01:45:49.772Z,20.31
2018-07-02T01:48:19.956Z,20.10
2018-07-02T01:50:50.254Z,20.10
2018-07-02T01:53:20.238Z,19.98
2018-07-02T01:55:50.409Z,20.00
2018-07-02T01:58:20.261Z,20.18
2018-07-02T02:00:54.596Z,20.49
2018-07-02T02:03:24.819Z,20.53
2018-07-02T02:05:54.868Z,20.55
2018-07-02T02:08:24.927Z,20.53
2018-07-02T02:10:55.027Z,20.54
2018-07-02T02:13:24.992Z,20.51
2018-07-02T02:15:54.910Z,20.35
2018-07-02T02:18:25.241Z,20.02
2018-07-02T02:20:55.285Z,19.60
2018-07-02T02:23:25.753Z,19.06
2018-07-02T02:25:55.968Z,18.46
2018-07-02T02:28:26.466Z,18.14
2018-07-02T02:30:56.520Z,18.21
2018-07-02T02:33:26.935Z,18.00
2018-07-02T02:35:57.032Z,17.63
2018-07-02T02:38:26.984Z,17.96
2018-07-02T02:40:56.885Z,17.96
2018-07-02T02:43:26.799Z,17.97
2018-07-02T02:45:56.876Z,17.95
2018-07-02T02:48:26.813Z,17.73
2018-07-02T02:50:56.784Z,17.43
2018-07-02T02:53:27.442Z,17.20
2018-07-02T02:55:57.723Z,17.06
2018-07-02T02:58:27.744Z,17.86
2018-07-02T03:01:02.342Z,18.36
2018-07-02T03:03:32.271Z,18.71
2018-07-02T03:06:02.196Z,19.18
2018-07-02T03:08:32.027Z,19.56
2018-07-02T03:11:03.093Z,19.74
2018-07-02T03:13:33.182Z,19.54
2018-07-02T03:16:03.265Z,19.15
2018-07-02T03:18:33.236Z,18.77
2018-07-02T03:21:03.508Z,18.35
2018-07-02T03:23:37.882Z,18.10
2018-07-02T03:26:07.882Z,18.92
2018-07-02T03:28:41.246Z,19.30
2018-07-02T03:31:11.403Z,19.46
2018-07-02T03:33:41.480Z,19.27
2018-07-02T03:36:11.710Z,19.28
2018-07-02T03:38:41.687Z,19.19
2018-07-02T03:41:12.595Z,19.00
2018-07-02T03:43:42.638Z,19.39
2018-07-02T03:46:12.704Z,19.30
2018-07-02T03:48:42.629Z,19.29
2018-07-02T03:51:12.605Z,19.54
2018-07-02T03:53:42.571Z,19.77
2018-07-02T03:56:12.551Z,19.88
2018-07-02T03:58:42.604Z,19.80
2018-07-02T04:01:12.682Z,19.59
2018-07-02T04:03:42.679Z,19.23
2018-07-02T04:06:12.879Z,18.94
2018-07-02T04:08:42.993Z,19.14
2018-07-02T04:11:13.111Z,19.62
2018-07-02T04:13:43.292Z,19.96
2018-07-02T04:16:13.404Z,20.15
2018-07-02T04:18:43.558Z,20.18
2018-07-02T04:21:13.723Z,20.11
2018-07-02T04:23:43.759Z,20.12
2018-07-02T04:26:13.923Z,20.19
2018-07-02T04:28:43.944Z,20.32
2018-07-02T04:31:14.845Z,20.46
2018-07-02T04:33:45.711Z,20.66
2018-07-02T04:36:16.268Z,20.85
2018-07-02T04:38:46.465Z,20.87
2018-07-02T04:41:16.974Z,20.86
2018-07-02T04:43:47.269Z,20.88
2018-07-02T04:46:17.748Z,20.86
2018-07-02T04:48:48.084Z,20.74
2018-07-02T04:51:18.542Z,20.71
2018-07-02T04:53:48.830Z,20.87
2018-07-02T04:56:18.998Z,20.88
2018-07-02T04:58:49.460Z,21.20
2018-07-02T05:01:19.849Z,21.63
2018-07-02T05:03:49.808Z,21.67
2018-07-02T05:06:20.740Z,21.60
2018-07-02T05:08:50.686Z,21.75
2018-07-02T05:11:20.712Z,21.74
2018-07-02T05:13:52.536Z,21.65
2018-07-02T05:16:22.661Z,21.91
2018-07-02T05:18:52.788Z,22.12
2018-07-02T05:21:23.015Z,22.37
2018-07-02T05:23:53.211Z,22.52
2018-07-02T05:26:23.295Z,22.72
2018-07-02T05:28:53.499Z,22.85
2018-07-02T05:31:23.847Z,22.94
2018-07-02T05:33:54.078Z,23.07
2018-07-02T05:36:24.312Z,22.93
2018-07-02T05:38:54.404Z,23.16
2018-07-02T05:41:24.892Z,23.40
2018-07-02T05:43:55.369Z,23.61
2018-07-02T05:46:25.788Z,23.98
2018-07-02T05:48:55.546Z,24.12
2018-07-02T05:51:25.638Z,24.48
2018-07-02T05:53:56.973Z,24.29
2018-07-02T05:56:26.977Z,24.40
2018-07-02T05:58:56.894Z,24.50
2018-07-02T06:01:26.893Z,24.42
2018-07-02T06:03:56.947Z,24.58
2018-07-02T06:06:26.967Z,24.25
2018-07-02T06:08:56.915Z,23.80
2018-07-02T06:11:26.944Z,23.70
2018-07-02T06:13:56.902Z,23.54
2018-07-02T06:16:27.388Z,23.53
2018-07-02T06:18:57.329Z,23.26
2018-07-02T06:21:37.355Z,22.97
2018-07-02T06:24:08.058Z,22.86
2018-07-02T06:26:41.061Z,23.17
2018-07-02T06:29:11.955Z,23.29
2018-07-02T06:31:41.959Z,23.57
2018-07-02T06:34:11.882Z,23.68
2018-07-02T06:36:41.976Z,23.87
2018-07-02T06:39:12.016Z,24.07
2018-07-02T06:41:42.061Z,24.17
2018-07-02T06:44:12.184Z,24.47
2018-07-02T06:46:44.249Z,24.43
2018-07-02T06:49:20.778Z,24.78
2018-07-02T06:51:50.848Z,25.20
2018-07-02T06:54:21.187Z,25.33
2018-07-02T06:56:51.698Z,25.45
2018-07-02T06:59:22.156Z,25.49
2018-07-02T07:01:52.141Z,25.49
2018-07-02T07:04:23.045Z,25.09
2018-07-02T07:06:53.268Z,24.98
2018-07-02T07:09:23.202Z,25.39
2018-07-02T07:11:53.162Z,25.48
2018-07-02T07:14:23.167Z,25.25
2018-07-02T07:16:53.170Z,24.84
2018-07-02T07:19:23.055Z,24.95
2018-07-02T07:21:53.008Z,24.86
2018-07-02T07:24:22.972Z,25.43
2018-07-02T07:26:53.338Z,25.55
2018-07-02T07:29:23.297Z,25.61
2018-07-02T07:31:53.277Z,25.81
2018-07-02T07:34:23.227Z,25.79
2018-07-02T07:37:03.567Z,25.84
2018-07-02T07:39:34.535Z,25.62
2018-07-02T07:42:04.995Z,25.74
2018-07-02T07:44:35.460Z,26.14
2018-07-02T07:47:05.527Z,26.06
2018-07-02T07:49:36.159Z,25.80
2018-07-02T07:52:06.138Z,26.00
2018-07-02T07:54:39.315Z,26.06
2018-07-02T07:57:09.303Z,26.54
2018-07-02T07:59:39.280Z,26.54
2018-07-02T08:02:09.366Z,26.78
2018-07-02T08:04:39.843Z,26.41
2018-07-02T08:07:09.790Z,26.61
2018-07-02T08:09:40.035Z,26.68
2018-07-02T08:12:10.058Z,27.05
2018-07-02T08:14:40.037Z,27.48
2018-07-02T08:17:10.041Z,27.59
2018-07-02T08:19:40.968Z,28.27
2018-07-02T08:22:11.545Z,28.60
2018-07-02T08:24:42.058Z,28.55
2018-07-02T08:27:25.930Z,28.70
2018-07-02T08:29:56.052Z,28.68
2018-07-02T08:32:26.360Z,28.62
2018-07-02T08:34:57.207Z,29.28
2018-07-02T08:37:27.275Z,29.11
2018-07-02T08:39:57.231Z,29.59
2018-07-02T08:42:27.270Z,29.73
2018-07-02T08:44:57.188Z,29.30
2018-07-02T08:47:27.291Z,29.85
2018-07-02T08:49:57.429Z,29.85
2018-07-02T08:52:27.408Z,29.43
2018-07-02T08:54:57.289Z,28.87
2018-07-02T08:57:27.403Z,28.74
2018-07-02T09:00:10.595Z,28.57
2018-07-02T09:02:40.633Z,29.04
2018-07-02T09:05:10.559Z,29.74
2018-07-02T09:07:40.645Z,30.38
2018-07-02T09:10:10.931Z,29.90
2018-07-02T09:12:40.895Z,29.23
2018-07-02T09:15:10.947Z,29.94
2018-07-02T09:17:40.884Z,30.54
2018-07-02T09:20:10.886Z,30.49
2018-07-02T09:22:40.892Z,30.48
2018-07-02T09:25:11.033Z,29.72
2018-07-02T09:27:41.098Z,30.51
2018-07-02T09:30:11.042Z,30.90
2018-07-02T09:32:40.984Z,31.67
2018-07-02T09:47:04.727Z,29.84
2018-07-02T09:49:35.364Z,30.09
2018-07-02T09:52:05.363Z,30.14
2018-07-02T09:54:35.445Z,30.21
2018-07-02T09:57:05.743Z,30.48
2018-07-02T09:59:36.040Z,29.99
2018-07-02T10:02:05.991Z,30.30
2018-07-02T10:04:36.508Z,30.59
2018-07-02T10:07:06.575Z,31.49
2018-07-02T10:09:37.128Z,31.48
2018-07-02T10:12:07.062Z,30.48
2018-07-02T10:14:37.430Z,30.43
2018-07-02T10:17:07.396Z,31.16
2018-07-02T10:19:38.377Z,31.88
2018-07-02T10:22:08.298Z,32.09
2018-07-02T10:24:38.754Z,32.56
2018-07-02T10:27:08.769Z,32.89
2018-07-02T10:29:39.148Z,32.71
2018-07-02T10:32:09.014Z,33.71
2018-07-02T10:34:39.775Z,34.10
2018-07-02T10:37:09.684Z,33.14
2018-07-02T10:39:39.514Z,32.23
2018-07-02T10:42:09.423Z,32.37
2018-07-02T10:44:39.363Z,32.31
2018-07-02T10:47:09.239Z,32.09
2018-07-02T10:49:39.242Z,32.42
2018-07-02T10:52:09.309Z,31.94
2018-07-02T10:54:39.216Z,31.91
2018-07-02T10:57:09.118Z,31.78
2018-07-02T10:59:40.470Z,32.72
2018-07-02T11:02:10.366Z,33.31
2018-07-02T11:04:40.300Z,33.54
2018-07-02T11:07:10.273Z,33.12
2018-07-02T11:09:40.218Z,33.25
2018-07-02T11:12:10.137Z,32.23
2018-07-02T11:14:40.662Z,31.54
2018-07-02T11:17:10.687Z,32.13
2018-07-02T11:19:40.560Z,31.62
2018-07-02T11:22:10.368Z,31.18
2018-07-02T11:24:40.255Z,30.47
2018-07-02T11:27:10.135Z,30.96
2018-07-02T11:29:40.020Z,31.63
2018-07-02T11:32:09.948Z,32.53
2018-07-02T11:34:39.936Z,33.09
2018-07-02T11:37:09.933Z,33.20
2018-07-02T11:39:39.865Z,32.43
2018-07-02T11:42:09.939Z,31.88
2018-07-02T11:44:40.009Z,32.77
2018-07-02T11:47:09.978Z,31.96
2018-07-02T11:49:40.128Z,31.13
2018-07-02T11:52:11.294Z,31.75
2018-07-02T11:54:41.320Z,31.93
2018-07-02T11:57:11.313Z,31.67
2018-07-02T11:59:41.310Z,31.59
2018-07-02T12:02:11.329Z,32.14
2018-07-02T12:04:41.608Z,32.49
2018-07-02T12:07:11.666Z,32.76
2018-07-02T12:09:42.578Z,32.84
2018-07-02T12:12:12.551Z,33.05
2018-07-02T12:26:41.931Z,32.31
2018-07-02T12:29:12.022Z,33.16
2018-07-02T12:31:42.095Z,32.15
2018-07-02T12:34:12.281Z,32.78
2018-07-02T12:36:42.563Z,33.39
2018-07-02T12:39:14.129Z,34.38
2018-07-02T12:41:44.203Z,34.63
2018-07-02T12:44:14.994Z,34.73
2018-07-02T12:46:45.831Z,35.00
2018-07-02T12:49:15.952Z,35.07
2018-07-02T12:51:46.040Z,35.22
2018-07-02T12:54:16.296Z,34.54
2018-07-02T12:56:46.273Z,33.41
2018-07-02T12:59:16.573Z,33.00
2018-07-02T13:01:46.523Z,32.14
2018-07-02T13:04:16.642Z,32.20
2018-07-02T13:06:47.465Z,32.77
2018-07-02T13:09:17.647Z,32.19
2018-07-02T13:11:47.545Z,31.75
2018-07-02T13:14:17.831Z,31.69
2018-07-02T13:16:47.851Z,32.19
2018-07-02T13:19:18.061Z,31.73
2018-07-02T13:21:48.698Z,32.14
2018-07-02T13:24:18.752Z,32.30
2018-07-02T13:26:48.925Z,32.37
2018-07-02T13:29:19.413Z,32.41
2018-07-02T13:31:50.104Z,32.33
2018-07-02T13:34:21.899Z,32.47
2018-07-02T13:36:52.076Z,32.71
2018-07-02T13:39:23.613Z,33.20
2018-07-02T13:41:53.988Z,32.07
2018-07-02T13:44:24.056Z,31.97
2018-07-02T13:46:54.717Z,32.57
2018-07-02T13:49:24.818Z,33.04
2018-07-02T13:51:54.963Z,33.01
2018-07-02T13:54:28.602Z,32.58
2018-07-02T13:56:58.957Z,32.19
2018-07-02T13:59:28.909Z,31.58
2018-07-02T14:01:58.852Z,31.61
2018-07-02T14:04:28.722Z,31.89
2018-07-02T14:06:59.871Z,31.93
2018-07-02T14:09:30.058Z,31.93
2018-07-02T14:12:00.844Z,32.12
2018-07-02T14:14:31.893Z,32.39
2018-07-02T14:17:01.725Z,31.66
2018-07-02T14:19:32.038Z,31.57
2018-07-02T14:22:01.958Z,31.63
2018-07-02T14:24:33.504Z,31.74
2018-07-02T14:27:03.353Z,31.56
2018-07-02T14:29:33.311Z,31.07
2018-07-02T14:32:03.368Z,31.17
2018-07-02T14:34:33.347Z,31.40
2018-07-02T14:37:10.864Z,31.60
2018-07-02T14:39:41.329Z,31.65
2018-07-02T14:42:11.679Z,31.24
2018-07-02T14:44:41.806Z,30.90
2018-07-02T14:47:12.448Z,30.81
2018-07-02T14:49:42.352Z,30.61
2018-07-02T14:52:12.494Z,30.56
2018-07-02T14:54:43.333Z,30.73
2018-07-02T14:57:13.968Z,30.64
2018-07-02T14:59:44.703Z,30.57
2018-07-02T15:02:15.688Z,30.75
2018-07-02T15:04:46.896Z,30.85
2018-07-02T15:07:16.873Z,30.57
2018-07-02T15:09:46.831Z,30.34
2018-07-02T15:12:16.671Z,30.11
2018-07-02T15:14:46.683Z,29.96
2018-07-02T15:17:16.806Z,29.96
2018-07-02T15:19:47.132Z,30.01
2018-07-02T15:22:17.748Z,29.91
2018-07-02T15:24:48.700Z,29.91
2018-07-02T15:27:18.637Z,29.78
2018-07-02T15:29:49.651Z,29.71
2018-07-02T15:32:21.410Z,29.50
2018-07-02T15:34:51.415Z,29.53
2018-07-02T15:37:21.361Z,29.35
2018-07-02T15:40:01.203Z,29.06
2018-07-02T15:42:51.262Z,29.02
2018-07-02T15:45:32.549Z,29.04
2018-07-02T15:50:55.682Z,28.95
2018-07-02T15:53:25.643Z,28.74
2018-07-02T15:55:55.561Z,28.63
2018-07-02T15:58:25.441Z,28.70
2018-07-02T16:00:55.500Z,28.56
2018-07-02T16:03:25.540Z,28.52
2018-07-02T16:05:55.520Z,28.49
2018-07-02T16:08:25.742Z,28.53
2018-07-02T16:10:55.934Z,28.48
2018-07-02T16:13:26.096Z,28.44
2018-07-02T16:15:56.069Z,28.44
2018-07-02T16:18:33.089Z,28.49
2018-07-02T16:21:03.048Z,28.40
2018-07-02T16:23:33.106Z,28.28
2018-07-02T16:26:03.407Z,28.18
2018-07-02T16:28:33.422Z,28.18
2018-07-02T16:31:06.121Z,28.31
2018-07-02T16:33:36.751Z,28.09
2018-07-02T16:36:06.699Z,28.13
2018-07-02T16:38:37.962Z,28.18
2018-07-02T16:41:07.938Z,28.21
2018-07-02T16:43:38.806Z,28.14
2018-07-02T16:46:09.873Z,28.06
2018-07-02T16:48:39.783Z,28.01
2018-07-02T16:51:30.586Z,27.90
2018-07-02T16:54:03.966Z,27.91
2018-07-02T16:56:38.850Z,27.87
2018-07-02T16:59:09.418Z,27.75
2018-07-02T17:01:39.529Z,27.64
2018-07-02T17:04:09.745Z,27.46
2018-07-02T17:09:47.984Z,27.25
2018-07-02T17:12:18.335Z,27.24
2018-07-02T17:14:49.147Z,27.13
2018-07-02T17:17:19.073Z,26.93
2018-07-02T17:19:49.060Z,26.94
2018-07-02T17:22:19.144Z,26.85
2018-07-02T17:24:49.079Z,26.86
2018-07-02T17:27:18.956Z,26.83
2018-07-02T17:29:54.575Z,26.83
2018-07-02T17:32:24.992Z,26.81
2018-07-02T17:34:55.100Z,26.75
2018-07-02T17:37:25.172Z,26.70
2018-07-02T17:39:55.434Z,26.62
2018-07-02T17:42:25.387Z,26.50
2018-07-02T17:44:55.296Z,26.36
2018-07-02T17:47:25.368Z,26.26
2018-07-02T17:49:55.793Z,26.13
2018-07-02T17:52:25.664Z,26.02
2018-07-02T17:54:55.561Z,25.98
2018-07-02T17:57:25.699Z,25.95
2018-07-02T17:59:55.744Z,25.90
2018-07-02T18:02:25.660Z,25.75
2018-07-02T18:04:55.681Z,25.73
2018-07-02T18:07:25.852Z,25.64
2018-07-02T18:09:56.788Z,25.49
2018-07-02T18:12:26.688Z,25.44
2018-07-02T18:14:56.879Z,25.50
2018-07-02T18:17:27.017Z,25.30
2018-07-02T18:19:56.958Z,25.21
2018-07-02T18:22:26.836Z,25.22
2018-07-02T18:24:56.722Z,25.16
2018-07-02T18:27:26.968Z,24.97
2018-07-02T18:29:56.887Z,24.82
2018-07-02T18:32:27.092Z,24.70
2018-07-02T18:34:57.213Z,24.78
2018-07-02T18:37:27.281Z,24.68
2018-07-02T18:39:57.470Z,24.63
2018-07-02T18:42:31.148Z,24.62
2018-07-02T18:45:01.161Z,24.55
2018-07-02T18:47:31.440Z,24.47
2018-07-02T18:50:01.338Z,24.37
2018-07-02T18:52:31.923Z,24.32
2018-07-02T18:55:02.058Z,24.34
2018-07-02T18:57:32.495Z,24.23
2018-07-02T19:00:02.377Z,24.17
2018-07-02T19:02:32.639Z,24.07
2018-07-02T19:05:02.829Z,24.14
2018-07-02T19:07:32.890Z,24.10
2018-07-02T19:10:07.192Z,24.06
2018-07-02T19:12:38.934Z,24.00
2018-07-02T19:15:09.726Z,23.96
2018-07-02T19:17:40.382Z,23.97
2018-07-02T19:20:11.372Z,23.87
2018-07-02T19:22:41.587Z,23.93
2018-07-02T19:25:12.185Z,23.96
2018-07-02T19:27:43.516Z,23.92
2018-07-02T19:30:13.524Z,23.89
2018-07-02T19:32:47.141Z,23.86
2018-07-02T19:35:43.650Z,23.68
2018-07-02T19:38:13.992Z,23.70
2018-07-02T19:40:44.821Z,23.71
2018-07-02T19:43:15.041Z,23.62
2018-07-02T19:45:51.318Z,23.76
2018-07-02T19:48:21.576Z,23.64
2018-07-02T19:50:52.060Z,23.54
2018-07-02T19:53:22.400Z,23.51
2018-07-02T19:55:53.370Z,23.51
2018-07-02T19:58:23.378Z,23.36
2018-07-02T20:00:53.598Z,23.54
2018-07-02T20:03:24.093Z,23.52
2018-07-02T20:05:54.377Z,23.46
2018-07-02T20:08:24.523Z,23.41
2018-07-02T20:10:54.818Z,23.21
2018-07-02T20:13:25.259Z,23.09
2018-07-02T20:15:55.571Z,23.26
2018-07-02T20:18:25.912Z,23.18
2018-07-02T20:20:56.683Z,23.15
2018-07-02T20:23:27.199Z,23.17
2018-07-02T20:25:57.969Z,23.08
2018-07-02T20:28:28.204Z,23.24
2018-07-02T20:30:58.504Z,23.27
2018-07-02T20:33:29.406Z,23.26
2018-07-02T20:39:00.775Z,22.99
2018-07-02T20:41:33.232Z,23.06
2018-07-02T20:44:05.523Z,23.07
2018-07-02T20:46:35.790Z,23.01
2018-07-02T20:49:06.439Z,23.02
2018-07-02T20:51:36.908Z,22.99
2018-07-02T20:54:07.042Z,22.93
2018-07-02T20:56:38.440Z,22.88
2018-07-02T20:59:10.712Z,22.85
2018-07-02T21:01:40.859Z,22.81
2018-07-02T21:04:11.288Z,22.79
2018-07-02T21:09:30.306Z,22.86
2018-07-02T21:12:00.449Z,22.86
2018-07-02T21:14:30.713Z,22.88
2018-07-02T21:17:00.895Z,22.95
2018-07-02T21:19:31.377Z,22.97
2018-07-02T21:22:01.646Z,22.93
2018-07-02T21:24:31.747Z,22.89
2018-07-02T21:27:01.758Z,22.88
2018-07-02T21:29:32.012Z,22.85
2018-07-02T21:32:07.555Z,22.83
2018-07-02T21:34:37.646Z,22.77
2018-07-02T21:37:07.669Z,22.74
2018-07-02T21:39:37.944Z,22.69
2018-07-02T21:42:08.340Z,22.63
2018-07-02T21:44:39.672Z,22.63
2018-07-02T21:47:10.604Z,22.56
2018-07-02T21:49:40.591Z,22.44
2018-07-02T21:52:10.620Z,22.33
2018-07-02T21:54:40.584Z,22.20
2018-07-02T21:57:10.620Z,22.13
2018-07-02T21:59:40.739Z,22.24
2018-07-02T22:02:10.814Z,22.24
2018-07-02T22:04:40.821Z,22.19
2018-07-02T22:07:10.898Z,22.16
2018-07-02T22:09:41.556Z,22.20
2018-07-02T22:12:11.575Z,22.57
2018-07-02T22:14:41.603Z,22.56
2018-07-02T22:17:11.447Z,22.59
2018-07-02T22:19:41.751Z,22.58
2018-07-02T22:22:11.725Z,22.54
2018-07-02T22:24:41.712Z,22.37
2018-07-02T22:27:11.605Z,22.17
2018-07-02T22:29:41.824Z,22.01
2018-07-02T22:32:11.714Z,22.01
2018-07-02T22:34:42.041Z,21.95
2018-07-02T22:37:11.903Z,21.86
2018-07-02T22:39:41.934Z,21.76
2018-07-02T22:42:11.962Z,21.64
2018-07-02T22:44:41.815Z,21.49
2018-07-02T22:47:12.572Z,21.37
2018-07-02T22:49:42.500Z,21.35
2018-07-02T22:52:12.777Z,21.50
2018-07-02T22:54:42.776Z,21.58
2018-07-02T22:57:12.789Z,21.63
2018-07-02T22:59:42.843Z,21.69
2018-07-02T23:02:13.088Z,21.76
2018-07-02T23:04:42.969Z,22.26
2018-07-02T23:07:13.008Z,22.40
2018-07-02T23:09:42.976Z,22.37
2018-07-02T23:12:12.967Z,22.32
2018-07-02T23:14:42.968Z,22.32
2018-07-02T23:17:12.859Z,22.24
2018-07-02T23:19:42.891Z,22.08
2018-07-02T23:22:12.769Z,21.86
2018-07-02T23:24:42.983Z,21.74
2018-07-02T23:27:12.976Z,21.67
2018-07-02T23:29:43.911Z,21.63
2018-07-02T23:32:13.847Z,21.79
2018-07-02T23:34:43.838Z,21.74
2018-07-02T23:37:13.798Z,21.81
2018-07-02T23:39:43.708Z,21.78
2018-07-02T23:42:13.740Z,21.78
2018-07-02T23:44:44.639Z,21.91
2018-07-02T23:47:14.645Z,22.11
2018-07-02T23:49:44.815Z,21.89
2018-07-02T23:52:14.882Z,21.75
2018-07-02T23:54:44.865Z,21.79
2018-07-02T23:57:14.866Z,21.75
2018-07-02T23:59:44.774Z,21.79
